sensor_id;sensor_type;location;lat;lon;timestamp;P1;durP1;ratioP1;P2;durP2;ratioP2
49366;SDS011;35245;52.026;8.540;2023-12-04T00:00:29;34.47;;;20.35;;
49366;SDS011;35245;52.026;8.540;2023-12-04T00:02:57;30.45;;;17.55;;
49366;SDS011;35245;52.026;8.540;2023-12-04T00:05:26;31.55;;;16.73;;
49366;SDS011;35245;52.026;8.540;2023-12-04T00:07:52;27.58;;;16.65;;
49366;SDS011;35245;52.026;8.540;2023-12-04T00:10:19;30.75;;;18.55;;
49366;SDS011;35245;52.026;8.540;2023-12-04T00:12:46;30.70;;;17.48;;
49366;SDS011;35245;52.026;8.540;2023-12-04T00:15:13;29.15;;;17.08;;
49366;SDS011;35245;52.026;8.540;2023-12-04T00:17:41;28.77;;;16.20;;
49366;SDS011;35245;52.026;8.540;2023-12-04T00:20:09;30.52;;;17.15;;
49366;SDS011;35245;52.026;8.540;2023-12-04T00:22:36;34.33;;;17.08;;
49366;SDS011;35245;52.026;8.540;2023-12-04T00:25:04;31.75;;;17.15;;
49366;SDS011;35245;52.026;8.540;2023-12-04T00:27:32;28.45;;;15.75;;
49366;SDS011;35245;52.026;8.540;2023-12-04T00:29:59;28.63;;;16.10;;
49366;SDS011;35245;52.026;8.540;2023-12-04T00:32:28;33.72;;;17.13;;
49366;SDS011;35245;52.026;8.540;2023-12-04T00:34:55;30.20;;;17.20;;
49366;SDS011;35245;52.026;8.540;2023-12-04T00:37:24;33.35;;;16.80;;
49366;SDS011;35245;52.026;8.540;2023-12-04T00:39:52;29.08;;;15.73;;
49366;SDS011;35245;52.026;8.540;2023-12-04T00:42:18;30.83;;;16.95;;
49366;SDS011;35245;52.026;8.540;2023-12-04T00:44:45;28.90;;;16.63;;
49366;SDS011;35245;52.026;8.540;2023-12-04T00:47:12;29.05;;;16.88;;
49366;SDS011;35245;52.026;8.540;2023-12-04T00:49:39;33.80;;;18.00;;
49366;SDS011;35245;52.026;8.540;2023-12-04T00:52:06;26.83;;;14.15;;
49366;SDS011;35245;52.026;8.540;2023-12-04T00:54:34;24.00;;;14.48;;
49366;SDS011;35245;52.026;8.540;2023-12-04T00:57:01;29.52;;;15.77;;
49366;SDS011;35245;52.026;8.540;2023-12-04T00:59:27;30.45;;;16.83;;
49366;SDS011;35245;52.026;8.540;2023-12-04T01:01:54;26.13;;;16.02;;
49366;SDS011;35245;52.026;8.540;2023-12-04T01:04:21;26.30;;;14.93;;
49366;SDS011;35245;52.026;8.540;2023-12-04T01:06:48;27.90;;;15.27;;
49366;SDS011;35245;52.026;8.540;2023-12-04T01:09:15;28.65;;;15.63;;
49366;SDS011;35245;52.026;8.540;2023-12-04T01:11:43;30.02;;;16.60;;
49366;SDS011;35245;52.026;8.540;2023-12-04T01:14:10;29.33;;;16.73;;
49366;SDS011;35245;52.026;8.540;2023-12-04T01:16:37;27.33;;;15.70;;
49366;SDS011;35245;52.026;8.540;2023-12-04T01:19:04;30.48;;;16.88;;
49366;SDS011;35245;52.026;8.540;2023-12-04T01:21:37;30.23;;;16.77;;
49366;SDS011;35245;52.026;8.540;2023-12-04T01:24:04;27.85;;;15.88;;
49366;SDS011;35245;52.026;8.540;2023-12-04T01:26:31;27.90;;;15.93;;
49366;SDS011;35245;52.026;8.540;2023-12-04T01:28:59;25.80;;;15.13;;
49366;SDS011;35245;52.026;8.540;2023-12-04T01:31:26;24.60;;;14.13;;
49366;SDS011;35245;52.026;8.540;2023-12-04T01:33:53;27.38;;;15.63;;
49366;SDS011;35245;52.026;8.540;2023-12-04T01:36:20;24.13;;;14.45;;
49366;SDS011;35245;52.026;8.540;2023-12-04T01:38:46;24.67;;;14.38;;
49366;SDS011;35245;52.026;8.540;2023-12-04T01:41:13;28.35;;;15.75;;
49366;SDS011;35245;52.026;8.540;2023-12-04T01:43:40;25.83;;;14.35;;
49366;SDS011;35245;52.026;8.540;2023-12-04T01:46:08;26.02;;;15.00;;
49366;SDS011;35245;52.026;8.540;2023-12-04T01:48:35;26.42;;;15.38;;
49366;SDS011;35245;52.026;8.540;2023-12-04T01:51:04;26.13;;;14.80;;
49366;SDS011;35245;52.026;8.540;2023-12-04T01:53:33;26.95;;;15.80;;
49366;SDS011;35245;52.026;8.540;2023-12-04T01:56:02;27.27;;;14.95;;
49366;SDS011;35245;52.026;8.540;2023-12-04T01:58:29;24.92;;;14.30;;
49366;SDS011;35245;52.026;8.540;2023-12-04T02:00:56;26.83;;;15.05;;
49366;SDS011;35245;52.026;8.540;2023-12-04T02:03:25;24.63;;;15.10;;
49366;SDS011;35245;52.026;8.540;2023-12-04T02:05:52;27.42;;;15.90;;
49366;SDS011;35245;52.026;8.540;2023-12-04T02:08:19;25.38;;;15.45;;
49366;SDS011;35245;52.026;8.540;2023-12-04T02:10:46;28.50;;;15.20;;
49366;SDS011;35245;52.026;8.540;2023-12-04T02:13:12;26.75;;;15.45;;
49366;SDS011;35245;52.026;8.540;2023-12-04T02:15:39;26.35;;;14.70;;
49366;SDS011;35245;52.026;8.540;2023-12-04T02:18:06;23.80;;;14.23;;
49366;SDS011;35245;52.026;8.540;2023-12-04T02:20:35;24.33;;;14.65;;
49366;SDS011;35245;52.026;8.540;2023-12-04T02:23:02;24.13;;;14.38;;
49366;SDS011;35245;52.026;8.540;2023-12-04T02:25:30;25.00;;;14.15;;
49366;SDS011;35245;52.026;8.540;2023-12-04T02:27:58;25.35;;;14.88;;
49366;SDS011;35245;52.026;8.540;2023-12-04T02:30:28;24.38;;;14.52;;
49366;SDS011;35245;52.026;8.540;2023-12-04T02:32:56;24.55;;;13.68;;
49366;SDS011;35245;52.026;8.540;2023-12-04T02:35:24;26.10;;;15.15;;
49366;SDS011;35245;52.026;8.540;2023-12-04T02:37:53;26.60;;;15.38;;
49366;SDS011;35245;52.026;8.540;2023-12-04T02:40:20;22.60;;;13.85;;
49366;SDS011;35245;52.026;8.540;2023-12-04T02:42:48;23.80;;;13.25;;
49366;SDS011;35245;52.026;8.540;2023-12-04T02:45:15;26.80;;;14.02;;
49366;SDS011;35245;52.026;8.540;2023-12-04T02:47:42;24.38;;;13.32;;
49366;SDS011;35245;52.026;8.540;2023-12-04T02:50:09;22.33;;;13.80;;
49366;SDS011;35245;52.026;8.540;2023-12-04T02:52:36;24.83;;;14.32;;
49366;SDS011;35245;52.026;8.540;2023-12-04T02:55:03;21.15;;;12.38;;
49366;SDS011;35245;52.026;8.540;2023-12-04T02:57:30;22.83;;;13.52;;
49366;SDS011;35245;52.026;8.540;2023-12-04T02:59:59;23.30;;;13.65;;
49366;SDS011;35245;52.026;8.540;2023-12-04T03:02:25;20.20;;;12.38;;
49366;SDS011;35245;52.026;8.540;2023-12-04T03:04:52;22.17;;;12.95;;
49366;SDS011;35245;52.026;8.540;2023-12-04T03:07:19;20.85;;;12.30;;
49366;SDS011;35245;52.026;8.540;2023-12-04T03:09:46;20.52;;;12.82;;
49366;SDS011;35245;52.026;8.540;2023-12-04T03:12:13;19.65;;;12.13;;
49366;SDS011;35245;52.026;8.540;2023-12-04T03:14:40;18.73;;;11.13;;
49366;SDS011;35245;52.026;8.540;2023-12-04T03:17:08;22.65;;;12.93;;
49366;SDS011;35245;52.026;8.540;2023-12-04T03:19:35;20.65;;;12.43;;
49366;SDS011;35245;52.026;8.540;2023-12-04T03:22:02;22.17;;;11.38;;
49366;SDS011;35245;52.026;8.540;2023-12-04T03:24:29;18.33;;;11.48;;
49366;SDS011;35245;52.026;8.540;2023-12-04T03:26:56;18.85;;;9.95;;
49366;SDS011;35245;52.026;8.540;2023-12-04T03:29:22;18.90;;;10.68;;
49366;SDS011;35245;52.026;8.540;2023-12-04T03:31:49;18.95;;;11.55;;
49366;SDS011;35245;52.026;8.540;2023-12-04T03:34:17;17.77;;;10.57;;
49366;SDS011;35245;52.026;8.540;2023-12-04T03:36:44;18.60;;;11.02;;
49366;SDS011;35245;52.026;8.540;2023-12-04T03:39:11;18.55;;;10.77;;
49366;SDS011;35245;52.026;8.540;2023-12-04T03:41:38;17.73;;;10.10;;
49366;SDS011;35245;52.026;8.540;2023-12-04T03:44:05;17.00;;;10.70;;
49366;SDS011;35245;52.026;8.540;2023-12-04T03:46:32;16.13;;;9.93;;
49366;SDS011;35245;52.026;8.540;2023-12-04T03:48:59;19.42;;;10.93;;
49366;SDS011;35245;52.026;8.540;2023-12-04T03:51:27;15.60;;;9.48;;
49366;SDS011;35245;52.026;8.540;2023-12-04T03:53:54;18.88;;;10.80;;
49366;SDS011;35245;52.026;8.540;2023-12-04T03:56:20;17.13;;;10.15;;
49366;SDS011;35245;52.026;8.540;2023-12-04T03:58:47;19.63;;;11.40;;
49366;SDS011;35245;52.026;8.540;2023-12-04T04:01:14;18.67;;;10.77;;
49366;SDS011;35245;52.026;8.540;2023-12-04T04:03:41;15.60;;;10.02;;
49366;SDS011;35245;52.026;8.540;2023-12-04T04:06:08;18.80;;;10.18;;
49366;SDS011;35245;52.026;8.540;2023-12-04T04:08:37;18.58;;;10.70;;
49366;SDS011;35245;52.026;8.540;2023-12-04T04:11:04;18.55;;;10.90;;
49366;SDS011;35245;52.026;8.540;2023-12-04T04:13:31;16.90;;;9.20;;
49366;SDS011;35245;52.026;8.540;2023-12-04T04:15:58;17.92;;;10.75;;
49366;SDS011;35245;52.026;8.540;2023-12-04T04:18:25;17.67;;;10.70;;
49366;SDS011;35245;52.026;8.540;2023-12-04T04:20:52;17.77;;;10.85;;
49366;SDS011;35245;52.026;8.540;2023-12-04T04:23:19;18.20;;;10.45;;
49366;SDS011;35245;52.026;8.540;2023-12-04T04:25:47;16.88;;;9.88;;
49366;SDS011;35245;52.026;8.540;2023-12-04T04:28:14;15.70;;;8.85;;
49366;SDS011;35245;52.026;8.540;2023-12-04T04:30:40;25.90;;;10.02;;
49366;SDS011;35245;52.026;8.540;2023-12-04T04:33:07;18.73;;;10.43;;
49366;SDS011;35245;52.026;8.540;2023-12-04T04:35:34;18.77;;;9.65;;
49366;SDS011;35245;52.026;8.540;2023-12-04T04:38:01;20.38;;;10.15;;
49366;SDS011;35245;52.026;8.540;2023-12-04T04:40:28;22.95;;;10.65;;
49366;SDS011;35245;52.026;8.540;2023-12-04T04:42:56;18.13;;;9.45;;
49366;SDS011;35245;52.026;8.540;2023-12-04T04:45:23;18.73;;;9.80;;
49366;SDS011;35245;52.026;8.540;2023-12-04T04:47:50;17.10;;;9.73;;
49366;SDS011;35245;52.026;8.540;2023-12-04T04:50:17;16.23;;;9.02;;
49366;SDS011;35245;52.026;8.540;2023-12-04T04:52:45;17.80;;;9.63;;
49366;SDS011;35245;52.026;8.540;2023-12-04T04:55:12;15.30;;;8.38;;
49366;SDS011;35245;52.026;8.540;2023-12-04T04:57:39;16.88;;;8.90;;
49366;SDS011;35245;52.026;8.540;2023-12-04T05:00:08;16.95;;;9.50;;
49366;SDS011;35245;52.026;8.540;2023-12-04T05:02:34;19.05;;;9.70;;
49366;SDS011;35245;52.026;8.540;2023-12-04T05:05:02;21.35;;;9.75;;
49366;SDS011;35245;52.026;8.540;2023-12-04T05:07:29;15.70;;;8.75;;
49366;SDS011;35245;52.026;8.540;2023-12-04T05:09:56;14.27;;;8.48;;
49366;SDS011;35245;52.026;8.540;2023-12-04T05:12:23;16.77;;;8.63;;
49366;SDS011;35245;52.026;8.540;2023-12-04T05:14:50;17.13;;;9.63;;
49366;SDS011;35245;52.026;8.540;2023-12-04T05:17:18;15.15;;;8.63;;
49366;SDS011;35245;52.026;8.540;2023-12-04T05:19:45;14.90;;;8.60;;
49366;SDS011;35245;52.026;8.540;2023-12-04T05:22:12;14.40;;;8.68;;
49366;SDS011;35245;52.026;8.540;2023-12-04T05:24:39;18.85;;;8.63;;
49366;SDS011;35245;52.026;8.540;2023-12-04T05:27:06;18.55;;;8.82;;
49366;SDS011;35245;52.026;8.540;2023-12-04T05:29:32;18.15;;;8.73;;
49366;SDS011;35245;52.026;8.540;2023-12-04T05:31:59;14.80;;;8.40;;
49366;SDS011;35245;52.026;8.540;2023-12-04T05:34:27;16.48;;;9.05;;
49366;SDS011;35245;52.026;8.540;2023-12-04T05:36:54;16.52;;;8.80;;
49366;SDS011;35245;52.026;8.540;2023-12-04T05:39:21;14.05;;;8.50;;
49366;SDS011;35245;52.026;8.540;2023-12-04T05:41:48;16.25;;;7.93;;
49366;SDS011;35245;52.026;8.540;2023-12-04T05:44:15;20.10;;;8.82;;
49366;SDS011;35245;52.026;8.540;2023-12-04T05:46:42;12.70;;;7.95;;
49366;SDS011;35245;52.026;8.540;2023-12-04T05:49:09;16.63;;;9.50;;
49366;SDS011;35245;52.026;8.540;2023-12-04T05:51:37;17.17;;;8.82;;
49366;SDS011;35245;52.026;8.540;2023-12-04T05:54:04;13.60;;;8.38;;
49366;SDS011;35245;52.026;8.540;2023-12-04T05:56:30;14.95;;;8.52;;
49366;SDS011;35245;52.026;8.540;2023-12-04T05:58:57;13.55;;;7.75;;
49366;SDS011;35245;52.026;8.540;2023-12-04T06:01:24;15.40;;;8.25;;
49366;SDS011;35245;52.026;8.540;2023-12-04T06:03:51;13.63;;;7.90;;
49366;SDS011;35245;52.026;8.540;2023-12-04T06:06:18;15.80;;;8.60;;
49366;SDS011;35245;52.026;8.540;2023-12-04T06:08:46;13.73;;;8.35;;
49366;SDS011;35245;52.026;8.540;2023-12-04T06:11:13;17.80;;;8.43;;
49366;SDS011;35245;52.026;8.540;2023-12-04T06:13:40;13.77;;;8.07;;
49366;SDS011;35245;52.026;8.540;2023-12-04T06:16:07;17.52;;;8.38;;
49366;SDS011;35245;52.026;8.540;2023-12-04T06:18:34;16.70;;;8.60;;
49366;SDS011;35245;52.026;8.540;2023-12-04T06:21:01;15.18;;;9.25;;
49366;SDS011;35245;52.026;8.540;2023-12-04T06:23:29;15.27;;;9.32;;
49366;SDS011;35245;52.026;8.540;2023-12-04T06:25:58;14.93;;;8.93;;
49366;SDS011;35245;52.026;8.540;2023-12-04T06:28:25;17.02;;;8.73;;
49366;SDS011;35245;52.026;8.540;2023-12-04T06:30:53;15.05;;;8.95;;
49366;SDS011;35245;52.026;8.540;2023-12-04T06:33:20;14.30;;;8.57;;
49366;SDS011;35245;52.026;8.540;2023-12-04T06:35:48;13.05;;;8.45;;
49366;SDS011;35245;52.026;8.540;2023-12-04T06:38:15;17.75;;;8.68;;
49366;SDS011;35245;52.026;8.540;2023-12-04T06:40:42;15.70;;;8.73;;
49366;SDS011;35245;52.026;8.540;2023-12-04T06:43:11;15.60;;;8.25;;
49366;SDS011;35245;52.026;8.540;2023-12-04T06:45:41;15.13;;;8.05;;
49366;SDS011;35245;52.026;8.540;2023-12-04T06:48:08;16.23;;;9.40;;
49366;SDS011;35245;52.026;8.540;2023-12-04T06:50:37;13.60;;;8.38;;
49366;SDS011;35245;52.026;8.540;2023-12-04T06:53:04;14.32;;;7.70;;
49366;SDS011;35245;52.026;8.540;2023-12-04T06:55:30;14.85;;;9.07;;
49366;SDS011;35245;52.026;8.540;2023-12-04T06:57:57;14.13;;;8.43;;
49366;SDS011;35245;52.026;8.540;2023-12-04T07:00:26;15.98;;;8.52;;
49366;SDS011;35245;52.026;8.540;2023-12-04T07:02:53;14.60;;;8.82;;
49366;SDS011;35245;52.026;8.540;2023-12-04T07:05:19;17.45;;;9.05;;
49366;SDS011;35245;52.026;8.540;2023-12-04T07:07:47;13.95;;;8.25;;
49366;SDS011;35245;52.026;8.540;2023-12-04T07:10:14;18.55;;;9.98;;
49366;SDS011;35245;52.026;8.540;2023-12-04T07:12:41;13.70;;;7.93;;
49366;SDS011;35245;52.026;8.540;2023-12-04T07:15:08;14.88;;;8.27;;
49366;SDS011;35245;52.026;8.540;2023-12-04T07:17:37;12.65;;;8.18;;
49366;SDS011;35245;52.026;8.540;2023-12-04T07:20:05;15.82;;;8.23;;
49366;SDS011;35245;52.026;8.540;2023-12-04T07:22:33;18.17;;;8.45;;
49366;SDS011;35245;52.026;8.540;2023-12-04T07:25:00;12.88;;;8.45;;
49366;SDS011;35245;52.026;8.540;2023-12-04T07:27:27;14.80;;;7.88;;
49366;SDS011;35245;52.026;8.540;2023-12-04T07:29:54;12.93;;;7.30;;
49366;SDS011;35245;52.026;8.540;2023-12-04T07:32:21;13.98;;;8.18;;
49366;SDS011;35245;52.026;8.540;2023-12-04T07:34:49;14.70;;;9.00;;
49366;SDS011;35245;52.026;8.540;2023-12-04T07:37:16;16.92;;;7.85;;
49366;SDS011;35245;52.026;8.540;2023-12-04T07:39:43;15.32;;;9.40;;
49366;SDS011;35245;52.026;8.540;2023-12-04T07:42:11;14.82;;;9.48;;
49366;SDS011;35245;52.026;8.540;2023-12-04T07:44:38;13.73;;;7.85;;
49366;SDS011;35245;52.026;8.540;2023-12-04T07:47:05;15.63;;;8.60;;
49366;SDS011;35245;52.026;8.540;2023-12-04T07:49:32;15.02;;;8.20;;
49366;SDS011;35245;52.026;8.540;2023-12-04T07:52:00;13.23;;;8.63;;
49366;SDS011;35245;52.026;8.540;2023-12-04T07:54:28;15.38;;;8.30;;
49366;SDS011;35245;52.026;8.540;2023-12-04T07:56:55;17.17;;;8.90;;
49366;SDS011;35245;52.026;8.540;2023-12-04T07:59:22;15.88;;;8.55;;
49366;SDS011;35245;52.026;8.540;2023-12-04T08:01:48;18.35;;;9.10;;
49366;SDS011;35245;52.026;8.540;2023-12-04T08:04:14;14.75;;;9.25;;
49366;SDS011;35245;52.026;8.540;2023-12-04T08:06:41;12.77;;;7.88;;
49366;SDS011;35245;52.026;8.540;2023-12-04T08:09:10;15.27;;;8.32;;
49366;SDS011;35245;52.026;8.540;2023-12-04T08:11:37;13.80;;;8.90;;
49366;SDS011;35245;52.026;8.540;2023-12-04T08:14:05;13.82;;;7.60;;
49366;SDS011;35245;52.026;8.540;2023-12-04T08:16:32;13.45;;;8.15;;
49366;SDS011;35245;52.026;8.540;2023-12-04T08:18:59;13.82;;;8.48;;
49366;SDS011;35245;52.026;8.540;2023-12-04T08:21:25;15.82;;;7.85;;
49366;SDS011;35245;52.026;8.540;2023-12-04T08:23:52;13.40;;;7.78;;
49366;SDS011;35245;52.026;8.540;2023-12-04T08:26:24;16.92;;;8.85;;
49366;SDS011;35245;52.026;8.540;2023-12-04T08:28:51;14.82;;;8.02;;
49366;SDS011;35245;52.026;8.540;2023-12-04T08:31:18;12.13;;;7.95;;
49366;SDS011;35245;52.026;8.540;2023-12-04T08:33:45;12.50;;;8.00;;
49366;SDS011;35245;52.026;8.540;2023-12-04T08:36:12;14.65;;;8.63;;
49366;SDS011;35245;52.026;8.540;2023-12-04T08:38:39;12.98;;;8.15;;
49366;SDS011;35245;52.026;8.540;2023-12-04T08:41:06;14.55;;;8.60;;
49366;SDS011;35245;52.026;8.540;2023-12-04T08:43:34;14.30;;;7.53;;
49366;SDS011;35245;52.026;8.540;2023-12-04T08:46:01;17.95;;;9.50;;
49366;SDS011;35245;52.026;8.540;2023-12-04T08:48:28;11.93;;;7.63;;
49366;SDS011;35245;52.026;8.540;2023-12-04T08:50:55;12.07;;;7.32;;
49366;SDS011;35245;52.026;8.540;2023-12-04T08:53:22;14.05;;;8.23;;
49366;SDS011;35245;52.026;8.540;2023-12-04T08:55:49;14.30;;;7.93;;
49366;SDS011;35245;52.026;8.540;2023-12-04T08:58:17;12.27;;;7.05;;
49366;SDS011;35245;52.026;8.540;2023-12-04T09:00:45;14.43;;;7.78;;
49366;SDS011;35245;52.026;8.540;2023-12-04T09:03:12;13.55;;;8.50;;
49366;SDS011;35245;52.026;8.540;2023-12-04T09:05:39;13.48;;;8.18;;
49366;SDS011;35245;52.026;8.540;2023-12-04T09:08:06;12.60;;;7.85;;
49366;SDS011;35245;52.026;8.540;2023-12-04T09:10:33;14.77;;;8.23;;
49366;SDS011;35245;52.026;8.540;2023-12-04T09:13:00;13.05;;;8.70;;
49366;SDS011;35245;52.026;8.540;2023-12-04T09:15:27;14.30;;;7.95;;
49366;SDS011;35245;52.026;8.540;2023-12-04T09:17:55;14.00;;;7.97;;
49366;SDS011;35245;52.026;8.540;2023-12-04T09:20:22;12.55;;;8.15;;
49366;SDS011;35245;52.026;8.540;2023-12-04T09:22:49;12.15;;;7.68;;
49366;SDS011;35245;52.026;8.540;2023-12-04T09:25:16;12.52;;;7.68;;
49366;SDS011;35245;52.026;8.540;2023-12-04T09:27:43;14.68;;;8.13;;
49366;SDS011;35245;52.026;8.540;2023-12-04T09:30:10;12.07;;;7.45;;
49366;SDS011;35245;52.026;8.540;2023-12-04T09:32:38;11.57;;;7.35;;
49366;SDS011;35245;52.026;8.540;2023-12-04T09:35:07;12.93;;;7.72;;
49366;SDS011;35245;52.026;8.540;2023-12-04T09:37:34;11.95;;;7.32;;
49366;SDS011;35245;52.026;8.540;2023-12-04T09:40:01;11.70;;;6.95;;
49366;SDS011;35245;52.026;8.540;2023-12-04T09:42:30;11.73;;;7.20;;
49366;SDS011;35245;52.026;8.540;2023-12-04T09:44:58;11.70;;;7.05;;
49366;SDS011;35245;52.026;8.540;2023-12-04T09:47:26;10.55;;;6.93;;
49366;SDS011;35245;52.026;8.540;2023-12-04T09:49:53;13.57;;;7.57;;
49366;SDS011;35245;52.026;8.540;2023-12-04T09:52:22;11.63;;;7.30;;
49366;SDS011;35245;52.026;8.540;2023-12-04T09:54:50;12.48;;;7.47;;
49366;SDS011;35245;52.026;8.540;2023-12-04T09:57:17;10.88;;;6.80;;
49366;SDS011;35245;52.026;8.540;2023-12-04T09:59:44;10.90;;;6.72;;
49366;SDS011;35245;52.026;8.540;2023-12-04T10:02:11;12.35;;;7.05;;
49366;SDS011;35245;52.026;8.540;2023-12-04T10:04:38;13.98;;;7.78;;
49366;SDS011;35245;52.026;8.540;2023-12-04T10:07:05;12.65;;;7.28;;
49366;SDS011;35245;52.026;8.540;2023-12-04T10:09:34;13.23;;;7.10;;
49366;SDS011;35245;52.026;8.540;2023-12-04T10:12:00;11.85;;;7.47;;
49366;SDS011;35245;52.026;8.540;2023-12-04T10:14:28;11.88;;;8.07;;
49366;SDS011;35245;52.026;8.540;2023-12-04T10:16:55;11.90;;;6.65;;
49366;SDS011;35245;52.026;8.540;2023-12-04T10:19:22;11.73;;;7.35;;
49366;SDS011;35245;52.026;8.540;2023-12-04T10:21:51;12.32;;;7.07;;
49366;SDS011;35245;52.026;8.540;2023-12-04T10:24:29;11.30;;;6.78;;
49366;SDS011;35245;52.026;8.540;2023-12-04T10:26:58;12.48;;;7.07;;
49366;SDS011;35245;52.026;8.540;2023-12-04T10:29:26;11.98;;;6.93;;
49366;SDS011;35245;52.026;8.540;2023-12-04T10:31:55;14.40;;;7.32;;
49366;SDS011;35245;52.026;8.540;2023-12-04T10:34:22;14.98;;;8.65;;
49366;SDS011;35245;52.026;8.540;2023-12-04T10:36:51;13.32;;;7.43;;
49366;SDS011;35245;52.026;8.540;2023-12-04T10:39:18;12.07;;;7.55;;
49366;SDS011;35245;52.026;8.540;2023-12-04T10:41:45;11.55;;;7.20;;
49366;SDS011;35245;52.026;8.540;2023-12-04T10:44:16;12.35;;;7.53;;
49366;SDS011;35245;52.026;8.540;2023-12-04T10:46:44;11.65;;;6.57;;
49366;SDS011;35245;52.026;8.540;2023-12-04T10:49:12;12.48;;;7.47;;
49366;SDS011;35245;52.026;8.540;2023-12-04T10:51:40;14.45;;;7.65;;
49366;SDS011;35245;52.026;8.540;2023-12-04T10:54:07;12.90;;;7.25;;
49366;SDS011;35245;52.026;8.540;2023-12-04T10:56:37;13.05;;;6.78;;
49366;SDS011;35245;52.026;8.540;2023-12-04T10:59:06;13.60;;;7.35;;
49366;SDS011;35245;52.026;8.540;2023-12-04T11:01:37;11.30;;;7.03;;
49366;SDS011;35245;52.026;8.540;2023-12-04T11:04:05;12.35;;;7.82;;
49366;SDS011;35245;52.026;8.540;2023-12-04T11:06:35;11.38;;;6.95;;
49366;SDS011;35245;52.026;8.540;2023-12-04T11:11:34;11.82;;;6.32;;
49366;SDS011;35245;52.026;8.540;2023-12-04T11:14:04;10.48;;;6.65;;
49366;SDS011;35245;52.026;8.540;2023-12-04T11:16:33;14.73;;;7.40;;
49366;SDS011;35245;52.026;8.540;2023-12-04T11:19:13;12.55;;;7.18;;
49366;SDS011;35245;52.026;8.540;2023-12-04T11:21:44;12.38;;;7.13;;
49366;SDS011;35245;52.026;8.540;2023-12-04T11:24:12;11.07;;;7.07;;
49366;SDS011;35245;52.026;8.540;2023-12-04T11:26:38;12.27;;;7.28;;
49366;SDS011;35245;52.026;8.540;2023-12-04T11:29:06;13.80;;;7.55;;
49366;SDS011;35245;52.026;8.540;2023-12-04T11:31:34;11.75;;;7.00;;
49366;SDS011;35245;52.026;8.540;2023-12-04T11:34:01;11.48;;;7.07;;
49366;SDS011;35245;52.026;8.540;2023-12-04T11:36:30;11.65;;;6.75;;
49366;SDS011;35245;52.026;8.540;2023-12-04T11:38:56;12.75;;;7.75;;
49366;SDS011;35245;52.026;8.540;2023-12-04T11:41:24;10.80;;;6.32;;
49366;SDS011;35245;52.026;8.540;2023-12-04T11:43:51;10.73;;;6.65;;
49366;SDS011;35245;52.026;8.540;2023-12-04T11:46:19;11.52;;;6.78;;
49366;SDS011;35245;52.026;8.540;2023-12-04T11:48:48;11.02;;;6.15;;
49366;SDS011;35245;52.026;8.540;2023-12-04T11:51:16;21.20;;;14.20;;
49366;SDS011;35245;52.026;8.540;2023-12-04T11:54:16;9.55;;;6.70;;
49366;SDS011;35245;52.026;8.540;2023-12-04T11:56:56;11.10;;;6.78;;
49366;SDS011;35245;52.026;8.540;2023-12-04T11:59:27;12.88;;;7.28;;
49366;SDS011;35245;52.026;8.540;2023-12-04T12:01:55;10.52;;;6.57;;
49366;SDS011;35245;52.026;8.540;2023-12-04T12:04:23;11.55;;;6.45;;
49366;SDS011;35245;52.026;8.540;2023-12-04T12:06:52;11.48;;;6.85;;
49366;SDS011;35245;52.026;8.540;2023-12-04T12:09:19;16.13;;;7.43;;
49366;SDS011;35245;52.026;8.540;2023-12-04T12:11:49;10.75;;;6.40;;
49366;SDS011;35245;52.026;8.540;2023-12-04T12:14:19;10.82;;;6.15;;
49366;SDS011;35245;52.026;8.540;2023-12-04T12:16:46;10.45;;;6.00;;
49366;SDS011;35245;52.026;8.540;2023-12-04T12:19:13;11.65;;;6.18;;
49366;SDS011;35245;52.026;8.540;2023-12-04T12:21:40;7.90;;;5.07;;
49366;SDS011;35245;52.026;8.540;2023-12-04T12:24:08;10.00;;;5.70;;
49366;SDS011;35245;52.026;8.540;2023-12-04T12:26:38;10.88;;;6.75;;
49366;SDS011;35245;52.026;8.540;2023-12-04T12:29:04;9.57;;;6.07;;
49366;SDS011;35245;52.026;8.540;2023-12-04T12:31:32;8.75;;;5.05;;
49366;SDS011;35245;52.026;8.540;2023-12-04T12:33:59;9.93;;;6.10;;
49366;SDS011;35245;52.026;8.540;2023-12-04T12:36:25;11.70;;;6.50;;
49366;SDS011;35245;52.026;8.540;2023-12-04T12:38:53;10.23;;;6.78;;
49366;SDS011;35245;52.026;8.540;2023-12-04T12:41:22;9.30;;;5.90;;
49366;SDS011;35245;52.026;8.540;2023-12-04T12:43:51;10.80;;;6.95;;
49366;SDS011;35245;52.026;8.540;2023-12-04T12:46:18;10.60;;;6.05;;
49366;SDS011;35245;52.026;8.540;2023-12-04T12:48:44;8.15;;;5.53;;
49366;SDS011;35245;52.026;8.540;2023-12-04T12:51:13;11.10;;;6.72;;
49366;SDS011;35245;52.026;8.540;2023-12-04T12:53:40;12.90;;;7.55;;
49366;SDS011;35245;52.026;8.540;2023-12-04T12:56:07;10.90;;;6.00;;
49366;SDS011;35245;52.026;8.540;2023-12-04T12:58:36;9.98;;;5.78;;
49366;SDS011;35245;52.026;8.540;2023-12-04T13:01:03;18.52;;;8.35;;
49366;SDS011;35245;52.026;8.540;2023-12-04T13:03:30;9.35;;;5.43;;
49366;SDS011;35245;52.026;8.540;2023-12-04T13:05:57;9.00;;;5.70;;
49366;SDS011;35245;52.026;8.540;2023-12-04T13:08:24;10.05;;;6.85;;
49366;SDS011;35245;52.026;8.540;2023-12-04T13:10:51;9.25;;;5.93;;
49366;SDS011;35245;52.026;8.540;2023-12-04T13:13:19;9.98;;;6.10;;
49366;SDS011;35245;52.026;8.540;2023-12-04T13:15:47;11.63;;;6.45;;
49366;SDS011;35245;52.026;8.540;2023-12-04T13:18:14;8.57;;;5.50;;
49366;SDS011;35245;52.026;8.540;2023-12-04T13:20:41;8.90;;;5.80;;
49366;SDS011;35245;52.026;8.540;2023-12-04T13:23:08;9.73;;;6.03;;
49366;SDS011;35245;52.026;8.540;2023-12-04T13:25:35;12.52;;;6.57;;
49366;SDS011;35245;52.026;8.540;2023-12-04T13:28:02;12.32;;;5.70;;
49366;SDS011;35245;52.026;8.540;2023-12-04T13:30:29;10.82;;;6.47;;
49366;SDS011;35245;52.026;8.540;2023-12-04T13:32:57;10.77;;;5.93;;
49366;SDS011;35245;52.026;8.540;2023-12-04T13:35:24;8.80;;;5.60;;
49366;SDS011;35245;52.026;8.540;2023-12-04T13:37:51;8.13;;;5.40;;
49366;SDS011;35245;52.026;8.540;2023-12-04T13:40:22;12.25;;;5.93;;
49366;SDS011;35245;52.026;8.540;2023-12-04T13:42:53;9.68;;;5.40;;
49366;SDS011;35245;52.026;8.540;2023-12-04T13:45:38;10.50;;;5.75;;
49366;SDS011;35245;52.026;8.540;2023-12-04T13:48:07;10.00;;;5.50;;
49366;SDS011;35245;52.026;8.540;2023-12-04T13:50:34;9.95;;;5.90;;
49366;SDS011;35245;52.026;8.540;2023-12-04T13:53:01;8.50;;;5.68;;
49366;SDS011;35245;52.026;8.540;2023-12-04T13:55:27;18.48;;;9.48;;
49366;SDS011;35245;52.026;8.540;2023-12-04T13:58:27;10.10;;;6.65;;
49366;SDS011;35245;52.026;8.540;2023-12-04T14:01:05;9.60;;;5.90;;
49366;SDS011;35245;52.026;8.540;2023-12-04T14:03:41;11.95;;;7.15;;
49366;SDS011;35245;52.026;8.540;2023-12-04T14:06:10;10.85;;;6.45;;
49366;SDS011;35245;52.026;8.540;2023-12-04T14:08:38;12.43;;;6.38;;
49366;SDS011;35245;52.026;8.540;2023-12-04T14:11:06;12.23;;;6.60;;
49366;SDS011;35245;52.026;8.540;2023-12-04T14:13:35;9.52;;;5.82;;
49366;SDS011;35245;52.026;8.540;2023-12-04T14:16:03;9.88;;;6.07;;
49366;SDS011;35245;52.026;8.540;2023-12-04T14:18:32;9.93;;;6.20;;
49366;SDS011;35245;52.026;8.540;2023-12-04T14:21:01;9.55;;;6.22;;
49366;SDS011;35245;52.026;8.540;2023-12-04T14:23:28;9.95;;;6.05;;
49366;SDS011;35245;52.026;8.540;2023-12-04T14:25:54;9.75;;;5.95;;
49366;SDS011;35245;52.026;8.540;2023-12-04T14:28:21;10.20;;;6.57;;
49366;SDS011;35245;52.026;8.540;2023-12-04T14:30:48;10.10;;;6.68;;
49366;SDS011;35245;52.026;8.540;2023-12-04T14:33:16;11.48;;;6.45;;
49366;SDS011;35245;52.026;8.540;2023-12-04T14:35:43;9.07;;;5.95;;